sensor_id;sensor_type;location;lat;lon;timestamp;P1;durP1;ratioP1;P2;durP2;ratioP2
48241;SDS011;34041;51.812;4.622;2023-04-06T00:01:27;12.05;;;10.07;;
48241;SDS011;34041;51.812;4.622;2023-04-06T00:04:28;10.43;;;9.13;;
48241;SDS011;34041;51.812;4.622;2023-04-06T00:07:28;16.50;;;10.70;;
48241;SDS011;34041;51.812;4.622;2023-04-06T00:10:29;11.65;;;9.70;;
48241;SDS011;34041;51.812;4.622;2023-04-06T00:13:29;16.65;;;10.07;;
48241;SDS011;34041;51.812;4.622;2023-04-06T00:16:30;13.67;;;10.17;;
48241;SDS011;34041;51.812;4.622;2023-04-06T00:19:30;12.15;;;9.23;;
48241;SDS011;34041;51.812;4.622;2023-04-06T00:22:30;13.73;;;9.37;;
48241;SDS011;34041;51.812;4.622;2023-04-06T00:25:30;12.43;;;8.18;;
48241;SDS011;34041;51.812;4.622;2023-04-06T00:28:31;11.00;;;9.00;;
48241;SDS011;34041;51.812;4.622;2023-04-06T00:31:31;12.47;;;8.97;;
48241;SDS011;34041;51.812;4.622;2023-04-06T00:34:31;14.40;;;8.93;;
48241;SDS011;34041;51.812;4.622;2023-04-06T00:37:32;12.23;;;9.60;;
48241;SDS011;34041;51.812;4.622;2023-04-06T00:40:32;11.85;;;8.93;;
48241;SDS011;34041;51.812;4.622;2023-04-06T00:43:32;11.65;;;8.73;;
48241;SDS011;34041;51.812;4.622;2023-04-06T00:46:33;13.02;;;9.63;;
48241;SDS011;34041;51.812;4.622;2023-04-06T00:49:33;11.77;;;8.67;;
48241;SDS011;34041;51.812;4.622;2023-04-06T00:52:34;13.00;;;9.20;;
48241;SDS011;34041;51.812;4.622;2023-04-06T00:55:35;11.35;;;8.38;;
48241;SDS011;34041;51.812;4.622;2023-04-06T00:58:36;9.32;;;8.25;;
48241;SDS011;34041;51.812;4.622;2023-04-06T01:01:38;13.52;;;9.48;;
48241;SDS011;34041;51.812;4.622;2023-04-06T01:04:38;11.43;;;8.90;;
48241;SDS011;34041;51.812;4.622;2023-04-06T01:07:39;12.30;;;9.43;;
48241;SDS011;34041;51.812;4.622;2023-04-06T01:10:40;12.70;;;8.80;;
48241;SDS011;34041;51.812;4.622;2023-04-06T01:13:40;12.18;;;8.93;;
48241;SDS011;34041;51.812;4.622;2023-04-06T01:16:41;13.60;;;10.18;;
48241;SDS011;34041;51.812;4.622;2023-04-06T01:19:41;11.45;;;8.65;;
48241;SDS011;34041;51.812;4.622;2023-04-06T01:22:41;13.65;;;9.05;;
48241;SDS011;34041;51.812;4.622;2023-04-06T01:25:42;12.00;;;9.80;;
48241;SDS011;34041;51.812;4.622;2023-04-06T01:28:42;11.93;;;9.20;;
48241;SDS011;34041;51.812;4.622;2023-04-06T01:31:44;13.60;;;9.77;;
48241;SDS011;34041;51.812;4.622;2023-04-06T01:34:44;9.73;;;8.73;;
48241;SDS011;34041;51.812;4.622;2023-04-06T01:37:44;13.32;;;9.23;;
48241;SDS011;34041;51.812;4.622;2023-04-06T01:40:45;15.43;;;10.10;;
48241;SDS011;34041;51.812;4.622;2023-04-06T01:43:46;11.23;;;9.20;;
48241;SDS011;34041;51.812;4.622;2023-04-06T01:46:46;12.05;;;9.95;;
48241;SDS011;34041;51.812;4.622;2023-04-06T01:49:47;11.60;;;9.20;;
48241;SDS011;34041;51.812;4.622;2023-04-06T01:52:47;10.68;;;9.52;;
48241;SDS011;34041;51.812;4.622;2023-04-06T01:55:47;12.83;;;9.13;;
48241;SDS011;34041;51.812;4.622;2023-04-06T01:58:47;10.60;;;9.10;;
48241;SDS011;34041;51.812;4.622;2023-04-06T02:01:48;13.40;;;9.70;;
48241;SDS011;34041;51.812;4.622;2023-04-06T02:04:48;11.27;;;9.80;;
48241;SDS011;34041;51.812;4.622;2023-04-06T02:07:48;11.55;;;9.00;;
48241;SDS011;34041;51.812;4.622;2023-04-06T02:10:49;12.40;;;10.00;;
48241;SDS011;34041;51.812;4.622;2023-04-06T02:13:49;13.15;;;9.20;;
48241;SDS011;34041;51.812;4.622;2023-04-06T02:16:50;12.52;;;9.27;;
48241;SDS011;34041;51.812;4.622;2023-04-06T02:19:50;12.17;;;9.57;;
48241;SDS011;34041;51.812;4.622;2023-04-06T02:22:50;12.25;;;10.65;;
48241;SDS011;34041;51.812;4.622;2023-04-06T02:25:50;12.35;;;9.18;;
48241;SDS011;34041;51.812;4.622;2023-04-06T02:28:51;10.77;;;9.00;;
48241;SDS011;34041;51.812;4.622;2023-04-06T02:31:51;14.63;;;10.00;;
48241;SDS011;34041;51.812;4.622;2023-04-06T02:34:51;13.30;;;9.97;;
48241;SDS011;34041;51.812;4.622;2023-04-06T02:37:51;14.50;;;10.18;;
48241;SDS011;34041;51.812;4.622;2023-04-06T02:40:52;12.65;;;9.40;;
48241;SDS011;34041;51.812;4.622;2023-04-06T02:43:52;13.43;;;9.52;;
48241;SDS011;34041;51.812;4.622;2023-04-06T02:46:52;14.90;;;12.03;;
48241;SDS011;34041;51.812;4.622;2023-04-06T02:49:52;13.60;;;10.27;;
48241;SDS011;34041;51.812;4.622;2023-04-06T02:52:53;11.88;;;10.30;;
48241;SDS011;34041;51.812;4.622;2023-04-06T02:55:53;12.48;;;9.88;;
48241;SDS011;34041;51.812;4.622;2023-04-06T02:58:53;14.40;;;10.90;;
48241;SDS011;34041;51.812;4.622;2023-04-06T03:01:53;12.82;;;10.23;;
48241;SDS011;34041;51.812;4.622;2023-04-06T03:04:54;13.23;;;9.68;;
48241;SDS011;34041;51.812;4.622;2023-04-06T03:07:54;13.27;;;9.95;;
48241;SDS011;34041;51.812;4.622;2023-04-06T03:10:55;15.88;;;11.02;;
48241;SDS011;34041;51.812;4.622;2023-04-06T03:13:55;12.90;;;10.55;;
48241;SDS011;34041;51.812;4.622;2023-04-06T03:16:55;13.30;;;11.30;;
48241;SDS011;34041;51.812;4.622;2023-04-06T03:19:55;14.63;;;11.13;;
48241;SDS011;34041;51.812;4.622;2023-04-06T03:22:56;17.27;;;11.87;;
48241;SDS011;34041;51.812;4.622;2023-04-06T03:25:56;14.30;;;11.63;;
48241;SDS011;34041;51.812;4.622;2023-04-06T03:28:56;14.68;;;9.90;;
48241;SDS011;34041;51.812;4.622;2023-04-06T03:31:56;14.67;;;11.70;;
48241;SDS011;34041;51.812;4.622;2023-04-06T03:34:57;13.87;;;10.13;;
48241;SDS011;34041;51.812;4.622;2023-04-06T03:37:57;14.67;;;11.27;;
48241;SDS011;34041;51.812;4.622;2023-04-06T03:40:57;12.20;;;9.75;;
48241;SDS011;34041;51.812;4.622;2023-04-06T03:43:57;14.27;;;11.17;;
48241;SDS011;34041;51.812;4.622;2023-04-06T03:46:58;14.43;;;11.10;;
48241;SDS011;34041;51.812;4.622;2023-04-06T03:49:58;14.10;;;11.38;;
48241;SDS011;34041;51.812;4.622;2023-04-06T03:52:58;14.02;;;10.43;;
48241;SDS011;34041;51.812;4.622;2023-04-06T03:55:59;11.37;;;9.67;;
48241;SDS011;34041;51.812;4.622;2023-04-06T03:58:59;16.77;;;12.40;;
48241;SDS011;34041;51.812;4.622;2023-04-06T04:01:59;14.77;;;11.30;;
48241;SDS011;34041;51.812;4.622;2023-04-06T04:05:00;15.95;;;11.82;;
48241;SDS011;34041;51.812;4.622;2023-04-06T04:08:00;14.70;;;12.25;;
48241;SDS011;34041;51.812;4.622;2023-04-06T04:11:00;13.27;;;11.47;;
48241;SDS011;34041;51.812;4.622;2023-04-06T04:14:01;21.13;;;11.93;;
48241;SDS011;34041;51.812;4.622;2023-04-06T04:17:01;25.08;;;13.40;;
48241;SDS011;34041;51.812;4.622;2023-04-06T04:20:01;27.20;;;13.23;;
48241;SDS011;34041;51.812;4.622;2023-04-06T04:23:02;21.00;;;13.77;;
48241;SDS011;34041;51.812;4.622;2023-04-06T04:26:02;17.35;;;13.23;;
48241;SDS011;34041;51.812;4.622;2023-04-06T04:29:02;17.35;;;11.95;;
48241;SDS011;34041;51.812;4.622;2023-04-06T04:32:02;18.63;;;13.17;;
48241;SDS011;34041;51.812;4.622;2023-04-06T04:35:03;22.00;;;13.63;;
48241;SDS011;34041;51.812;4.622;2023-04-06T04:38:03;18.23;;;13.35;;
48241;SDS011;34041;51.812;4.622;2023-04-06T04:41:03;18.30;;;11.77;;
48241;SDS011;34041;51.812;4.622;2023-04-06T04:44:04;18.05;;;13.23;;
48241;SDS011;34041;51.812;4.622;2023-04-06T04:47:04;16.08;;;12.82;;
48241;SDS011;34041;51.812;4.622;2023-04-06T04:50:05;17.88;;;12.30;;
48241;SDS011;34041;51.812;4.622;2023-04-06T04:53:05;21.00;;;12.82;;
48241;SDS011;34041;51.812;4.622;2023-04-06T04:56:06;15.65;;;12.32;;
48241;SDS011;34041;51.812;4.622;2023-04-06T04:59:06;17.07;;;12.63;;
48241;SDS011;34041;51.812;4.622;2023-04-06T05:02:06;16.57;;;12.37;;
48241;SDS011;34041;51.812;4.622;2023-04-06T05:05:06;16.70;;;12.17;;
48241;SDS011;34041;51.812;4.622;2023-04-06T05:08:07;20.42;;;13.30;;
48241;SDS011;34041;51.812;4.622;2023-04-06T05:11:08;14.48;;;11.43;;
48241;SDS011;34041;51.812;4.622;2023-04-06T05:14:08;17.48;;;12.95;;
48241;SDS011;34041;51.812;4.622;2023-04-06T05:17:09;18.20;;;12.88;;
48241;SDS011;34041;51.812;4.622;2023-04-06T05:20:09;17.75;;;13.23;;
48241;SDS011;34041;51.812;4.622;2023-04-06T05:23:10;16.80;;;12.43;;
48241;SDS011;34041;51.812;4.622;2023-04-06T05:26:10;17.73;;;13.32;;
48241;SDS011;34041;51.812;4.622;2023-04-06T05:29:11;18.15;;;13.23;;
48241;SDS011;34041;51.812;4.622;2023-04-06T05:32:12;17.67;;;12.00;;
48241;SDS011;34041;51.812;4.622;2023-04-06T05:35:12;18.30;;;12.95;;
48241;SDS011;34041;51.812;4.622;2023-04-06T05:38:12;17.08;;;12.50;;
48241;SDS011;34041;51.812;4.622;2023-04-06T05:41:12;19.20;;;12.50;;
48241;SDS011;34041;51.812;4.622;2023-04-06T05:44:13;17.02;;;12.45;;
48241;SDS011;34041;51.812;4.622;2023-04-06T05:47:13;17.10;;;12.50;;
48241;SDS011;34041;51.812;4.622;2023-04-06T05:50:14;19.80;;;13.83;;
48241;SDS011;34041;51.812;4.622;2023-04-06T05:53:14;18.90;;;14.25;;
48241;SDS011;34041;51.812;4.622;2023-04-06T05:56:15;20.58;;;13.68;;
48241;SDS011;34041;51.812;4.622;2023-04-06T05:59:16;16.63;;;13.35;;
48241;SDS011;34041;51.812;4.622;2023-04-06T06:02:16;14.98;;;13.07;;
48241;SDS011;34041;51.812;4.622;2023-04-06T06:05:16;20.67;;;12.55;;
48241;SDS011;34041;51.812;4.622;2023-04-06T06:08:17;16.27;;;13.63;;
48241;SDS011;34041;51.812;4.622;2023-04-06T06:11:17;19.88;;;13.90;;
48241;SDS011;34041;51.812;4.622;2023-04-06T06:14:17;18.20;;;14.03;;
48241;SDS011;34041;51.812;4.622;2023-04-06T06:17:18;17.73;;;14.05;;
48241;SDS011;34041;51.812;4.622;2023-04-06T06:20:18;20.25;;;13.73;;
48241;SDS011;34041;51.812;4.622;2023-04-06T06:23:18;19.15;;;13.65;;
48241;SDS011;34041;51.812;4.622;2023-04-06T06:26:18;15.20;;;12.70;;
48241;SDS011;34041;51.812;4.622;2023-04-06T06:29:19;16.50;;;14.63;;
48241;SDS011;34041;51.812;4.622;2023-04-06T06:32:19;16.10;;;12.90;;
48241;SDS011;34041;51.812;4.622;2023-04-06T06:35:19;15.93;;;11.75;;
48241;SDS011;34041;51.812;4.622;2023-04-06T06:38:20;20.50;;;13.90;;
48241;SDS011;34041;51.812;4.622;2023-04-06T06:41:20;21.23;;;13.73;;
48241;SDS011;34041;51.812;4.622;2023-04-06T06:44:21;18.27;;;13.30;;
48241;SDS011;34041;51.812;4.622;2023-04-06T06:47:21;17.17;;;14.25;;
48241;SDS011;34041;51.812;4.622;2023-04-06T06:50:21;18.60;;;13.43;;
48241;SDS011;34041;51.812;4.622;2023-04-06T06:53:22;19.03;;;13.47;;
48241;SDS011;34041;51.812;4.622;2023-04-06T06:56:22;17.35;;;14.52;;
48241;SDS011;34041;51.812;4.622;2023-04-06T06:59:23;19.50;;;14.13;;
48241;SDS011;34041;51.812;4.622;2023-04-06T07:02:23;19.67;;;13.90;;
48241;SDS011;34041;51.812;4.622;2023-04-06T07:05:23;15.93;;;13.88;;
48241;SDS011;34041;51.812;4.622;2023-04-06T07:08:24;20.55;;;13.60;;
48241;SDS011;34041;51.812;4.622;2023-04-06T07:11:24;21.55;;;14.05;;
48241;SDS011;34041;51.812;4.622;2023-04-06T07:14:24;18.77;;;14.60;;
48241;SDS011;34041;51.812;4.622;2023-04-06T07:17:25;18.50;;;13.47;;
48241;SDS011;34041;51.812;4.622;2023-04-06T07:20:25;18.40;;;13.98;;
48241;SDS011;34041;51.812;4.622;2023-04-06T07:23:25;19.30;;;14.57;;
48241;SDS011;34041;51.812;4.622;2023-04-06T07:26:26;18.55;;;15.05;;
48241;SDS011;34041;51.812;4.622;2023-04-06T07:29:26;21.77;;;15.27;;
48241;SDS011;34041;51.812;4.622;2023-04-06T07:32:27;18.27;;;14.80;;
48241;SDS011;34041;51.812;4.622;2023-04-06T07:35:27;18.33;;;14.35;;
48241;SDS011;34041;51.812;4.622;2023-04-06T07:38:27;21.52;;;15.65;;
48241;SDS011;34041;51.812;4.622;2023-04-06T07:41:28;22.37;;;15.57;;
48241;SDS011;34041;51.812;4.622;2023-04-06T07:44:28;18.43;;;16.27;;
48241;SDS011;34041;51.812;4.622;2023-04-06T07:47:28;21.13;;;15.23;;
48241;SDS011;34041;51.812;4.622;2023-04-06T07:50:28;20.55;;;15.57;;
48241;SDS011;34041;51.812;4.622;2023-04-06T07:53:29;20.27;;;15.30;;
48241;SDS011;34041;51.812;4.622;2023-04-06T07:56:30;21.52;;;15.00;;
48241;SDS011;34041;51.812;4.622;2023-04-06T07:59:30;19.25;;;16.00;;
48241;SDS011;34041;51.812;4.622;2023-04-06T08:02:33;19.70;;;14.93;;
48241;SDS011;34041;51.812;4.622;2023-04-06T08:05:33;20.83;;;16.23;;
48241;SDS011;34041;51.812;4.622;2023-04-06T08:08:34;17.77;;;14.60;;
48241;SDS011;34041;51.812;4.622;2023-04-06T08:11:34;20.88;;;16.15;;
48241;SDS011;34041;51.812;4.622;2023-04-06T08:14:34;21.63;;;15.57;;
48241;SDS011;34041;51.812;4.622;2023-04-06T08:17:34;23.42;;;15.77;;
48241;SDS011;34041;51.812;4.622;2023-04-06T08:20:35;22.67;;;15.80;;
48241;SDS011;34041;51.812;4.622;2023-04-06T08:23:35;21.15;;;16.02;;
48241;SDS011;34041;51.812;4.622;2023-04-06T08:26:35;23.98;;;15.63;;
48241;SDS011;34041;51.812;4.622;2023-04-06T08:29:35;20.47;;;15.73;;
48241;SDS011;34041;51.812;4.622;2023-04-06T08:32:36;21.55;;;14.98;;
48241;SDS011;34041;51.812;4.622;2023-04-06T08:35:36;17.60;;;14.55;;
48241;SDS011;34041;51.812;4.622;2023-04-06T08:38:36;21.37;;;15.23;;
48241;SDS011;34041;51.812;4.622;2023-04-06T08:41:37;21.13;;;14.95;;
48241;SDS011;34041;51.812;4.622;2023-04-06T08:44:37;18.63;;;14.05;;
48241;SDS011;34041;51.812;4.622;2023-04-06T08:47:37;20.05;;;15.10;;
48241;SDS011;34041;51.812;4.622;2023-04-06T08:50:38;19.55;;;15.02;;
48241;SDS011;34041;51.812;4.622;2023-04-06T08:53:38;17.08;;;14.20;;
48241;SDS011;34041;51.812;4.622;2023-04-06T08:56:39;14.90;;;12.07;;
48241;SDS011;34041;51.812;4.622;2023-04-06T08:59:39;16.90;;;12.85;;
48241;SDS011;34041;51.812;4.622;2023-04-06T09:02:41;18.55;;;13.10;;
48241;SDS011;34041;51.812;4.622;2023-04-06T09:05:42;15.43;;;10.60;;
48241;SDS011;34041;51.812;4.622;2023-04-06T09:08:43;18.17;;;12.40;;
48241;SDS011;34041;51.812;4.622;2023-04-06T09:11:50;13.82;;;10.07;;
48241;SDS011;34041;51.812;4.622;2023-04-06T09:14:51;13.13;;;10.43;;
48241;SDS011;34041;51.812;4.622;2023-04-06T09:17:51;13.90;;;9.93;;
48241;SDS011;34041;51.812;4.622;2023-04-06T09:20:58;13.75;;;10.45;;
48241;SDS011;34041;51.812;4.622;2023-04-06T09:23:59;12.95;;;11.55;;
48241;SDS011;34041;51.812;4.622;2023-04-06T09:27:00;14.32;;;10.48;;
48241;SDS011;34041;51.812;4.622;2023-04-06T09:33:05;12.43;;;10.87;;
48241;SDS011;34041;51.812;4.622;2023-04-06T09:36:06;11.15;;;9.20;;
48241;SDS011;34041;51.812;4.622;2023-04-06T09:39:09;11.93;;;9.45;;
48241;SDS011;34041;51.812;4.622;2023-04-06T09:42:11;14.45;;;11.02;;
48241;SDS011;34041;51.812;4.622;2023-04-06T09:45:12;11.23;;;8.48;;
48241;SDS011;34041;51.812;4.622;2023-04-06T09:48:12;13.95;;;9.52;;
48241;SDS011;34041;51.812;4.622;2023-04-06T09:51:13;9.88;;;7.30;;
48241;SDS011;34041;51.812;4.622;2023-04-06T09:54:15;10.90;;;8.25;;
48241;SDS011;34041;51.812;4.622;2023-04-06T09:57:23;11.52;;;8.25;;
48241;SDS011;34041;51.812;4.622;2023-04-06T10:00:25;8.23;;;7.05;;
48241;SDS011;34041;51.812;4.622;2023-04-06T10:06:28;10.75;;;7.43;;
48241;SDS011;34041;51.812;4.622;2023-04-06T10:09:33;9.30;;;6.90;;
48241;SDS011;34041;51.812;4.622;2023-04-06T10:12:36;8.48;;;6.50;;
48241;SDS011;34041;51.812;4.622;2023-04-06T10:15:37;11.55;;;6.65;;
48241;SDS011;34041;51.812;4.622;2023-04-06T10:18:38;8.45;;;6.40;;
48241;SDS011;34041;51.812;4.622;2023-04-06T10:21:39;9.93;;;7.22;;
48241;SDS011;34041;51.812;4.622;2023-04-06T10:24:40;9.15;;;6.38;;
48241;SDS011;34041;51.812;4.622;2023-04-06T10:27:40;9.75;;;6.95;;
48241;SDS011;34041;51.812;4.622;2023-04-06T10:30:41;7.75;;;5.57;;
48241;SDS011;34041;51.812;4.622;2023-04-06T10:33:42;7.28;;;6.50;;
48241;SDS011;34041;51.812;4.622;2023-04-06T10:36:53;8.02;;;6.32;;
48241;SDS011;34041;51.812;4.622;2023-04-06T10:39:53;9.33;;;6.77;;
48241;SDS011;34041;51.812;4.622;2023-04-06T10:43:08;8.63;;;6.38;;
48241;SDS011;34041;51.812;4.622;2023-04-06T10:46:09;7.03;;;6.15;;
48241;SDS011;34041;51.812;4.622;2023-04-06T10:49:10;7.85;;;6.18;;
48241;SDS011;34041;51.812;4.622;2023-04-06T10:52:13;8.40;;;6.00;;
48241;SDS011;34041;51.812;4.622;2023-04-06T10:55:14;7.23;;;5.90;;
48241;SDS011;34041;51.812;4.622;2023-04-06T10:58:14;7.10;;;5.38;;
48241;SDS011;34041;51.812;4.622;2023-04-06T11:01:18;8.77;;;5.80;;
48241;SDS011;34041;51.812;4.622;2023-04-06T11:04:20;7.90;;;5.63;;
48241;SDS011;34041;51.812;4.622;2023-04-06T11:07:27;6.85;;;6.15;;
48241;SDS011;34041;51.812;4.622;2023-04-06T11:10:29;9.65;;;6.63;;
48241;SDS011;34041;51.812;4.622;2023-04-06T11:14:03;7.55;;;5.78;;
48241;SDS011;34041;51.812;4.622;2023-04-06T11:16:56;6.70;;;5.45;;
48241;SDS011;34041;51.812;4.622;2023-04-06T11:19:57;6.97;;;5.63;;
48241;SDS011;34041;51.812;4.622;2023-04-06T11:22:57;8.18;;;6.30;;
48241;SDS011;34041;51.812;4.622;2023-04-06T11:25:59;7.35;;;5.80;;
48241;SDS011;34041;51.812;4.622;2023-04-06T11:28:59;8.00;;;5.40;;
48241;SDS011;34041;51.812;4.622;2023-04-06T11:32:03;8.32;;;5.72;;
48241;SDS011;34041;51.812;4.622;2023-04-06T11:35:03;8.43;;;6.38;;
48241;SDS011;34041;51.812;4.622;2023-04-06T11:38:03;6.75;;;4.97;;
48241;SDS011;34041;51.812;4.622;2023-04-06T11:41:04;6.63;;;5.00;;
48241;SDS011;34041;51.812;4.622;2023-04-06T11:44:05;5.53;;;4.72;;
48241;SDS011;34041;51.812;4.622;2023-04-06T11:47:09;6.25;;;5.13;;
48241;SDS011;34041;51.812;4.622;2023-04-06T11:50:13;7.40;;;5.20;;
48241;SDS011;34041;51.812;4.622;2023-04-06T11:53:13;6.60;;;5.10;;
48241;SDS011;34041;51.812;4.622;2023-04-06T11:56:23;5.63;;;4.78;;
48241;SDS011;34041;51.812;4.622;2023-04-06T11:59:24;8.70;;;6.03;;
48241;SDS011;34041;51.812;4.622;2023-04-06T12:02:24;8.20;;;5.38;;
48241;SDS011;34041;51.812;4.622;2023-04-06T12:05:25;9.00;;;5.47;;
48241;SDS011;34041;51.812;4.622;2023-04-06T12:08:25;6.47;;;5.32;;
48241;SDS011;34041;51.812;4.622;2023-04-06T12:11:25;6.57;;;5.50;;
48241;SDS011;34041;51.812;4.622;2023-04-06T12:14:26;7.35;;;5.65;;
48241;SDS011;34041;51.812;4.622;2023-04-06T12:17:26;7.22;;;4.95;;
48241;SDS011;34041;51.812;4.622;2023-04-06T12:20:26;6.65;;;5.10;;
48241;SDS011;34041;51.812;4.622;2023-04-06T12:23:27;7.60;;;5.57;;
48241;SDS011;34041;51.812;4.622;2023-04-06T12:26:27;6.50;;;5.27;;
48241;SDS011;34041;51.812;4.622;2023-04-06T12:29:28;5.80;;;4.85;;
48241;SDS011;34041;51.812;4.622;2023-04-06T12:32:28;7.57;;;5.75;;
48241;SDS011;34041;51.812;4.622;2023-04-06T12:35:28;7.82;;;5.53;;
48241;SDS011;34041;51.812;4.622;2023-04-06T12:38:29;6.40;;;4.80;;
48241;SDS011;34041;51.812;4.622;2023-04-06T12:41:30;9.18;;;5.50;;
48241;SDS011;34041;51.812;4.622;2023-04-06T12:44:30;6.53;;;5.22;;
48241;SDS011;34041;51.812;4.622;2023-04-06T12:47:31;7.30;;;5.40;;
48241;SDS011;34041;51.812;4.622;2023-04-06T12:50:31;6.50;;;4.63;;
48241;SDS011;34041;51.812;4.622;2023-04-06T12:53:32;7.00;;;5.07;;
48241;SDS011;34041;51.812;4.622;2023-04-06T12:56:32;6.53;;;4.80;;
48241;SDS011;34041;51.812;4.622;2023-04-06T12:59:32;7.18;;;5.57;;
48241;SDS011;34041;51.812;4.622;2023-04-06T13:02:35;7.65;;;5.55;;
48241;SDS011;34041;51.812;4.622;2023-04-06T13:05:35;6.97;;;5.20;;
48241;SDS011;34041;51.812;4.622;2023-04-06T13:08:36;7.13;;;4.97;;
48241;SDS011;34041;51.812;4.622;2023-04-06T13:11:37;6.50;;;4.75;;
48241;SDS011;34041;51.812;4.622;2023-04-06T13:14:38;5.63;;;4.88;;
48241;SDS011;34041;51.812;4.622;2023-04-06T13:17:39;6.30;;;5.05;;
48241;SDS011;34041;51.812;4.622;2023-04-06T13:20:39;5.80;;;4.60;;
48241;SDS011;34041;51.812;4.622;2023-04-06T13:23:40;5.78;;;5.18;;
48241;SDS011;34041;51.812;4.622;2023-04-06T13:26:40;7.10;;;5.40;;
48241;SDS011;34041;51.812;4.622;2023-04-06T13:29:40;7.00;;;5.18;;
48241;SDS011;34041;51.812;4.622;2023-04-06T13:32:41;5.75;;;4.70;;
48241;SDS011;34041;51.812;4.622;2023-04-06T13:35:44;6.43;;;5.05;;
48241;SDS011;34041;51.812;4.622;2023-04-06T13:38:44;5.82;;;4.80;;
48241;SDS011;34041;51.812;4.622;2023-04-06T13:41:45;5.55;;;4.88;;
48241;SDS011;34041;51.812;4.622;2023-04-06T13:44:45;5.95;;;4.68;;
48241;SDS011;34041;51.812;4.622;2023-04-06T13:47:46;6.60;;;5.43;;
48241;SDS011;34041;51.812;4.622;2023-04-06T13:50:47;5.03;;;4.47;;
48241;SDS011;34041;51.812;4.622;2023-04-06T13:53:47;6.18;;;4.47;;
48241;SDS011;34041;51.812;4.622;2023-04-06T13:56:47;6.47;;;4.90;;
48241;SDS011;34041;51.812;4.622;2023-04-06T13:59:47;5.38;;;4.25;;
48241;SDS011;34041;51.812;4.622;2023-04-06T14:02:49;5.15;;;4.15;;
48241;SDS011;34041;51.812;4.622;2023-04-06T14:05:50;5.40;;;4.68;;
48241;SDS011;34041;51.812;4.622;2023-04-06T14:08:50;7.00;;;5.35;;
48241;SDS011;34041;51.812;4.622;2023-04-06T14:11:51;6.20;;;5.05;;
48241;SDS011;34041;51.812;4.622;2023-04-06T14:14:52;6.00;;;4.78;;
48241;SDS011;34041;51.812;4.622;2023-04-06T14:17:52;6.30;;;5.03;;
48241;SDS011;34041;51.812;4.622;2023-04-06T14:20:55;5.68;;;5.15;;
48241;SDS011;34041;51.812;4.622;2023-04-06T14:23:56;7.10;;;5.43;;
48241;SDS011;34041;51.812;4.622;2023-04-06T14:26:56;5.80;;;4.88;;
48241;SDS011;34041;51.812;4.622;2023-04-06T14:29:57;5.03;;;4.47;;
48241;SDS011;34041;51.812;4.622;2023-04-06T14:32:57;5.73;;;4.53;;
48241;SDS011;34041;51.812;4.622;2023-04-06T14:35:58;5.13;;;4.22;;
48241;SDS011;34041;51.812;4.622;2023-04-06T14:38:58;5.33;;;4.47;;
48241;SDS011;34041;51.812;4.622;2023-04-06T14:41:58;5.53;;;4.20;;
48241;SDS011;34041;51.812;4.622;2023-04-06T14:44:58;6.37;;;5.10;;
48241;SDS011;34041;51.812;4.622;2023-04-06T14:47:59;5.20;;;4.45;;
48241;SDS011;34041;51.812;4.622;2023-04-06T14:50:59;6.60;;;4.97;;
48241;SDS011;34041;51.812;4.622;2023-04-06T14:54:00;5.17;;;4.57;;
48241;SDS011;34041;51.812;4.622;2023-04-06T14:57:00;4.85;;;3.70;;
48241;SDS011;34041;51.812;4.622;2023-04-06T15:00:00;5.60;;;4.53;;
48241;SDS011;34041;51.812;4.622;2023-04-06T15:03:00;4.90;;;4.33;;
48241;SDS011;34041;51.812;4.622;2023-04-06T15:06:01;4.63;;;3.77;;
48241;SDS011;34041;51.812;4.622;2023-04-06T15:09:01;6.33;;;4.47;;
48241;SDS011;34041;51.812;4.622;2023-04-06T15:12:02;5.90;;;4.25;;
48241;SDS011;34041;51.812;4.622;2023-04-06T15:15:02;4.95;;;4.28;;
48241;SDS011;34041;51.812;4.622;2023-04-06T15:18:04;4.88;;;4.38;;
48241;SDS011;34041;51.812;4.622;2023-04-06T15:21:04;6.18;;;4.55;;
48241;SDS011;34041;51.812;4.622;2023-04-06T15:24:05;5.63;;;4.35;;
48241;SDS011;34041;51.812;4.622;2023-04-06T15:27:08;4.45;;;4.05;;
48241;SDS011;34041;51.812;4.622;2023-04-06T15:30:08;5.33;;;4.37;;
48241;SDS011;34041;51.812;4.622;2023-04-06T15:33:09;5.03;;;4.35;;
48241;SDS011;34041;51.812;4.622;2023-04-06T15:36:30;5.22;;;4.00;;
48241;SDS011;34041;51.812;4.622;2023-04-06T15:39:30;4.65;;;4.15;;
48241;SDS011;34041;51.812;4.622;2023-04-06T15:42:31;6.10;;;4.05;;
48241;SDS011;34041;51.812;4.622;2023-04-06T15:45:31;5.73;;;4.10;;
48241;SDS011;34041;51.812;4.622;2023-04-06T15:48:31;5.37;;;4.50;;
48241;SDS011;34041;51.812;4.622;2023-04-06T15:51:31;5.07;;;4.07;;
48241;SDS011;34041;51.812;4.622;2023-04-06T15:54:32;4.88;;;4.20;;
48241;SDS011;34041;51.812;4.622;2023-04-06T15:57:33;4.50;;;3.97;;
48241;SDS011;34041;51.812;4.622;2023-04-06T16:00:33;5.78;;;3.95;;
48241;SDS011;34041;51.812;4.622;2023-04-06T16:03:33;6.57;;;4.00;;
48241;SDS011;34041;51.812;4.622;2023-04-06T16:06:34;4.80;;;4.30;;
48241;SDS011;34041;51.812;4.622;2023-04-06T16:09:34;5.88;;;5.28;;
48241;SDS011;34041;51.812;4.622;2023-04-06T16:12:34;5.13;;;3.80;;
48241;SDS011;34041;51.812;4.622;2023-04-06T16:15:34;4.95;;;4.07;;
48241;SDS011;34041;51.812;4.622;2023-04-06T16:18:35;4.68;;;3.85;;
48241;SDS011;34041;51.812;4.622;2023-04-06T16:21:35;4.20;;;3.80;;
48241;SDS011;34041;51.812;4.622;2023-04-06T16:24:35;5.67;;;4.67;;
48241;SDS011;34041;51.812;4.622;2023-04-06T16:27:36;4.75;;;3.78;;
48241;SDS011;34041;51.812;4.622;2023-04-06T16:30:36;5.77;;;4.23;;
48241;SDS011;34041;51.812;4.622;2023-04-06T16:33:37;5.03;;;3.95;;
48241;SDS011;34041;51.812;4.622;2023-04-06T16:36:37;5.23;;;3.93;;
48241;SDS011;34041;51.812;4.622;2023-04-06T16:39:39;4.65;;;4.15;;
48241;SDS011;34041;51.812;4.622;2023-04-06T16:42:43;5.47;;;4.50;;
48241;SDS011;34041;51.812;4.622;2023-04-06T16:45:49;6.45;;;4.40;;
48241;SDS011;34041;51.812;4.622;2023-04-06T16:48:50;5.80;;;4.57;;
48241;SDS011;34041;51.812;4.622;2023-04-06T16:51:51;6.70;;;4.90;;
48241;SDS011;34041;51.812;4.622;2023-04-06T16:54:51;5.45;;;4.85;;
48241;SDS011;34041;51.812;4.622;2023-04-06T16:57:54;5.83;;;4.90;;
48241;SDS011;34041;51.812;4.622;2023-04-06T17:00:54;5.38;;;4.50;;
48241;SDS011;34041;51.812;4.622;2023-04-06T17:03:55;6.83;;;5.13;;
48241;SDS011;34041;51.812;4.622;2023-04-06T17:06:55;6.63;;;4.97;;
48241;SDS011;34041;51.812;4.622;2023-04-06T17:09:55;8.70;;;4.90;;
48241;SDS011;34041;51.812;4.622;2023-04-06T17:12:57;6.47;;;4.72;;
48241;SDS011;34041;51.812;4.622;2023-04-06T17:15:57;6.63;;;4.93;;
48241;SDS011;34041;51.812;4.622;2023-04-06T17:18:58;5.78;;;4.93;;
48241;SDS011;34041;51.812;4.622;2023-04-06T17:21:58;6.37;;;5.77;;
48241;SDS011;34041;51.812;4.622;2023-04-06T17:24:59;6.22;;;5.63;;
48241;SDS011;34041;51.812;4.622;2023-04-06T17:28:01;6.00;;;5.35;;
48241;SDS011;34041;51.812;4.622;2023-04-06T17:31:01;6.47;;;5.67;;
48241;SDS011;34041;51.812;4.622;2023-04-06T17:34:05;6.47;;;5.15;;
48241;SDS011;34041;51.812;4.622;2023-04-06T17:37:06;6.35;;;5.38;;
48241;SDS011;34041;51.812;4.622;2023-04-06T17:40:06;6.70;;;5.80;;
48241;SDS011;34041;51.812;4.622;2023-04-06T17:43:06;6.80;;;5.15;;
48241;SDS011;34041;51.812;4.622;2023-04-06T17:46:07;8.63;;;6.13;;
48241;SDS011;34041;51.812;4.622;2023-04-06T17:49:07;6.78;;;5.75;;
48241;SDS011;34041;51.812;4.622;2023-04-06T17:52:08;7.10;;;6.40;;
48241;SDS011;34041;51.812;4.622;2023-04-06T17:55:08;6.60;;;5.97;;
48241;SDS011;34041;51.812;4.622;2023-04-06T17:58:08;7.50;;;6.80;;
48241;SDS011;34041;51.812;4.622;2023-04-06T18:01:09;9.15;;;6.68;;